createdAt,value
2022-10-07T00:00:51.663Z,10.75
2022-10-07T00:03:19.767Z,10.68
2022-10-07T00:05:47.168Z,15.15
2022-10-07T00:08:14.515Z,10.50
2022-10-07T00:10:43.220Z,8.95
2022-10-07T00:13:12.131Z,9.48
2022-10-07T00:15:39.796Z,12.68
2022-10-07T00:18:07.033Z,10.98
2022-10-07T00:20:40.383Z,14.30
2022-10-07T00:23:08.201Z,11.05
2022-10-07T00:25:38.379Z,8.25
2022-10-07T00:28:06.289Z,11.80
2022-10-07T00:30:33.649Z,11.50
2022-10-07T00:33:00.893Z,12.73
2022-10-07T00:35:28.389Z,11.55
2022-10-07T00:37:55.582Z,12.02
2022-10-07T00:40:22.732Z,14.90
2022-10-07T00:42:49.938Z,11.75
2022-10-07T00:45:19.375Z,12.02
2022-10-07T00:47:47.843Z,11.15
2022-10-07T00:50:19.165Z,10.45
2022-10-07T00:52:52.395Z,10.55
2022-10-07T00:55:22.036Z,11.30
2022-10-07T00:57:49.865Z,14.30
2022-10-07T01:00:17.397Z,9.63
2022-10-07T01:02:45.453Z,11.05
2022-10-07T01:05:14.243Z,12.07
2022-10-07T01:07:41.998Z,10.70
2022-10-07T01:10:11.725Z,11.55
2022-10-07T01:12:51.520Z,10.52
2022-10-07T01:15:39.550Z,11.57
2022-10-07T01:18:17.584Z,10.50
2022-10-07T01:20:53.845Z,10.82
2022-10-07T01:23:40.839Z,15.85
2022-10-07T01:26:14.197Z,12.23
2022-10-07T01:28:50.582Z,10.88
2022-10-07T01:31:20.604Z,11.15
2022-10-07T01:33:48.883Z,11.77
2022-10-07T01:36:17.857Z,10.35
2022-10-07T01:38:50.188Z,11.57
2022-10-07T01:41:18.924Z,10.85
2022-10-07T01:43:52.852Z,14.98
2022-10-07T01:46:24.609Z,12.25
2022-10-07T01:48:53.042Z,11.13
2022-10-07T01:51:22.821Z,16.20
2022-10-07T01:54:05.396Z,13.18
2022-10-07T01:56:57.251Z,13.20
2022-10-07T01:59:36.587Z,14.93
2022-10-07T02:02:15.910Z,13.20
2022-10-07T02:04:49.101Z,11.95
2022-10-07T02:07:16.206Z,13.32
2022-10-07T02:10:06.714Z,14.70
2022-10-07T02:12:38.206Z,13.23
2022-10-07T02:15:17.267Z,13.13
2022-10-07T02:17:47.776Z,12.13
2022-10-07T02:20:15.931Z,12.07
2022-10-07T02:22:45.893Z,10.80
2022-10-07T02:25:14.901Z,13.63
2022-10-07T02:27:43.688Z,12.63
2022-10-07T02:30:12.722Z,11.23
2022-10-07T02:32:42.509Z,9.73
2022-10-07T02:35:17.426Z,10.70
2022-10-07T02:37:45.706Z,11.00
2022-10-07T02:40:13.181Z,7.70
2022-10-07T02:43:01.171Z,12.80
2022-10-07T02:45:28.407Z,10.32
2022-10-07T02:48:05.900Z,7.78
2022-10-07T02:50:37.383Z,9.07
2022-10-07T02:53:05.774Z,10.48
2022-10-07T02:55:35.010Z,10.35
2022-10-07T02:58:03.717Z,7.47
2022-10-07T03:00:32.220Z,10.05
2022-10-07T03:03:03.660Z,9.63
2022-10-07T03:05:30.829Z,10.50
2022-10-07T03:08:02.995Z,10.13
2022-10-07T03:10:30.160Z,7.80
2022-10-07T03:12:57.558Z,8.82
2022-10-07T03:15:25.971Z,8.38
2022-10-07T03:17:53.237Z,8.70
2022-10-07T03:20:20.387Z,9.00
2022-10-07T03:22:47.595Z,8.52
2022-10-07T03:25:15.423Z,9.32
2022-10-07T03:27:43.368Z,11.27
2022-10-07T03:30:11.625Z,9.48
2022-10-07T03:32:39.572Z,10.63
2022-10-07T03:35:06.965Z,10.02
2022-10-07T03:37:34.220Z,10.82
2022-10-07T03:40:01.393Z,9.60
2022-10-07T03:42:28.546Z,11.07
2022-10-07T03:44:55.797Z,8.40
2022-10-07T03:47:22.951Z,9.63
2022-10-07T03:49:50.383Z,10.05
2022-10-07T03:52:17.669Z,8.52
2022-10-07T03:54:44.789Z,8.93
2022-10-07T03:57:30.843Z,9.35
2022-10-07T03:59:58.803Z,7.82
2022-10-07T04:02:26.002Z,11.32
2022-10-07T04:04:53.410Z,7.65
2022-10-07T04:07:22.116Z,13.20
2022-10-07T04:09:49.519Z,10.25
2022-10-07T04:12:16.832Z,10.18
2022-10-07T04:14:43.987Z,9.25
2022-10-07T04:17:11.203Z,9.05
2022-10-07T04:19:38.418Z,9.45
2022-10-07T04:22:08.965Z,10.32
2022-10-07T04:24:36.373Z,7.68
2022-10-07T04:27:05.185Z,7.00
2022-10-07T04:29:38.125Z,6.40
2022-10-07T04:32:06.349Z,7.15
2022-10-07T04:34:33.525Z,9.82
2022-10-07T04:37:01.296Z,12.63
2022-10-07T04:39:49.080Z,9.30
2022-10-07T04:42:34.654Z,7.40
2022-10-07T04:45:01.947Z,7.72
2022-10-07T04:47:29.082Z,8.65
2022-10-07T04:49:56.337Z,8.98
2022-10-07T04:52:23.619Z,9.15
2022-10-07T04:54:51.666Z,10.82
2022-10-07T04:57:18.849Z,10.52
2022-10-07T04:59:46.151Z,9.05
2022-10-07T05:02:13.369Z,10.65
2022-10-07T05:04:40.563Z,10.98
2022-10-07T05:07:08.728Z,11.75
2022-10-07T05:09:35.887Z,13.05
2022-10-07T05:12:03.022Z,12.73
2022-10-07T05:14:30.301Z,9.27
2022-10-07T05:16:57.446Z,8.07
2022-10-07T05:19:24.656Z,9.38
2022-10-07T05:21:51.874Z,7.90
2022-10-07T05:24:19.017Z,8.23
2022-10-07T05:26:46.150Z,17.15
2022-10-07T05:29:13.375Z,8.27
2022-10-07T05:31:40.626Z,10.13
2022-10-07T05:34:08.132Z,8.05
2022-10-07T05:36:35.730Z,8.93
2022-10-07T05:39:02.865Z,10.57
2022-10-07T05:41:30.020Z,11.95
2022-10-07T05:43:57.369Z,13.73
2022-10-07T05:46:24.626Z,10.25
2022-10-07T05:48:53.016Z,8.32
2022-10-07T05:51:21.119Z,9.75
2022-10-07T05:53:48.529Z,8.07
2022-10-07T05:56:16.793Z,9.32
2022-10-07T05:58:44.221Z,8.90
2022-10-07T06:01:16.194Z,9.52
2022-10-07T06:03:44.159Z,7.38
2022-10-07T06:06:11.467Z,9.10
2022-10-07T06:08:38.621Z,8.05
2022-10-07T06:11:25.422Z,12.48
2022-10-07T06:13:53.607Z,10.32
2022-10-07T06:16:20.871Z,12.20
2022-10-07T06:18:50.517Z,15.27
2022-10-07T06:21:17.979Z,10.32
2022-10-07T06:23:45.374Z,8.63
2022-10-07T06:26:13.683Z,10.00
2022-10-07T06:28:42.106Z,14.00
2022-10-07T06:31:16.049Z,10.63
2022-10-07T06:33:43.583Z,12.40
2022-10-07T06:36:12.338Z,9.07
2022-10-07T06:38:39.646Z,6.45
2022-10-07T06:41:07.112Z,10.52
2022-10-07T06:43:34.993Z,9.93
2022-10-07T06:46:03.841Z,7.97
2022-10-07T06:48:32.070Z,10.65
2022-10-07T06:51:00.029Z,10.98
2022-10-07T06:53:27.598Z,11.43
2022-10-07T06:55:57.718Z,8.68
2022-10-07T06:58:26.024Z,8.07
2022-10-07T07:00:57.265Z,9.93
2022-10-07T07:03:25.138Z,7.72
2022-10-07T07:05:54.674Z,8.90
2022-10-07T07:08:25.379Z,8.15
2022-10-07T07:10:52.613Z,11.73
2022-10-07T07:13:19.829Z,11.35
2022-10-07T07:15:57.405Z,8.60
2022-10-07T07:18:25.035Z,9.82
2022-10-07T07:20:52.310Z,10.75
2022-10-07T07:23:19.589Z,8.18
2022-10-07T07:25:46.773Z,6.15
2022-10-07T07:28:15.723Z,9.73
2022-10-07T07:30:43.437Z,9.50
2022-10-07T07:33:10.754Z,8.63
2022-10-07T07:35:39.962Z,8.55
2022-10-07T07:38:07.223Z,8.45
2022-10-07T07:40:36.885Z,12.77
2022-10-07T07:43:04.366Z,10.45
2022-10-07T07:45:33.178Z,9.82
2022-10-07T07:48:00.649Z,6.40
2022-10-07T07:50:27.804Z,8.75
2022-10-07T07:52:57.469Z,6.97
2022-10-07T07:55:25.129Z,7.53
2022-10-07T07:57:52.277Z,7.40
2022-10-07T08:00:19.928Z,5.75
2022-10-07T08:02:47.594Z,8.68
2022-10-07T08:05:14.809Z,8.15
2022-10-07T08:07:42.075Z,11.88
2022-10-07T08:10:09.413Z,8.13
2022-10-07T08:12:36.554Z,9.10
2022-10-07T08:15:03.786Z,8.95
2022-10-07T08:17:30.964Z,11.90
2022-10-07T08:19:58.148Z,7.05
2022-10-07T08:22:25.444Z,7.65
2022-10-07T08:24:52.995Z,7.43
2022-10-07T08:27:20.490Z,10.68
2022-10-07T08:29:47.782Z,10.85
2022-10-07T08:32:14.925Z,7.53
2022-10-07T08:34:42.108Z,9.05
2022-10-07T08:37:09.335Z,7.78
2022-10-07T08:39:36.603Z,8.63
2022-10-07T08:42:08.675Z,9.20
2022-10-07T08:44:40.172Z,12.88
2022-10-07T08:47:07.373Z,13.90
2022-10-07T08:49:37.963Z,11.65
2022-10-07T08:52:18.624Z,10.90
2022-10-07T08:54:45.770Z,9.05
2022-10-07T08:57:34.517Z,10.00
2022-10-07T09:00:05.600Z,9.25
2022-10-07T09:05:07.114Z,10.10
2022-10-07T09:07:38.899Z,11.85
2022-10-07T09:10:25.184Z,8.00
2022-10-07T09:13:12.666Z,7.88
2022-10-07T09:15:49.937Z,10.95
2022-10-07T09:18:22.259Z,11.70
2022-10-07T09:20:57.088Z,10.23
2022-10-07T09:23:31.434Z,10.25
2022-10-07T09:25:58.748Z,8.70
2022-10-07T09:28:33.442Z,13.15
2022-10-07T09:31:03.031Z,10.18
2022-10-07T09:33:30.425Z,9.68
2022-10-07T09:35:59.537Z,7.65
2022-10-07T09:38:31.643Z,10.52
2022-10-07T09:41:16.139Z,9.00
2022-10-07T09:43:58.059Z,8.35
2022-10-07T09:46:37.165Z,10.73
2022-10-07T09:49:05.618Z,9.35
2022-10-07T09:51:35.146Z,11.73
2022-10-07T09:54:07.086Z,8.48
2022-10-07T09:56:38.915Z,9.05
2022-10-07T09:59:20.081Z,10.75
2022-10-07T10:04:18.454Z,11.05
2022-10-07T10:06:49.794Z,8.13
2022-10-07T10:09:26.645Z,10.95
2022-10-07T10:12:05.916Z,13.27
2022-10-07T10:14:41.969Z,9.13
2022-10-07T10:17:21.859Z,8.60
2022-10-07T10:19:49.035Z,8.48
2022-10-07T10:22:30.864Z,7.30
2022-10-07T10:25:16.946Z,8.38
2022-10-07T10:27:50.832Z,15.48
2022-10-07T10:30:20.911Z,10.30
2022-10-07T10:33:02.919Z,8.38
2022-10-07T10:35:31.798Z,6.75
2022-10-07T10:38:02.222Z,9.00
2022-10-07T10:40:42.971Z,4.38
2022-10-07T10:43:20.283Z,6.45
2022-10-07T10:45:50.224Z,6.60
2022-10-07T10:48:29.165Z,9.75
2022-10-07T10:50:59.138Z,5.55
2022-10-07T10:53:32.118Z,8.10
2022-10-07T10:56:14.330Z,6.35
2022-10-07T10:58:58.456Z,5.82
2022-10-07T11:01:51.721Z,6.20
2022-10-07T11:04:31.174Z,6.88
2022-10-07T11:07:03.357Z,8.75
2022-10-07T11:09:42.583Z,6.22
2022-10-07T11:12:21.592Z,6.72
2022-10-07T11:14:55.730Z,7.47
2022-10-07T11:17:27.352Z,11.80
2022-10-07T11:20:05.687Z,10.82
2022-10-07T11:22:37.240Z,8.15
2022-10-07T11:25:09.310Z,5.28
2022-10-07T11:27:36.561Z,8.05
2022-10-07T11:30:03.696Z,5.07
2022-10-07T11:32:42.830Z,8.65
2022-10-07T11:35:23.536Z,8.80
2022-10-07T11:37:59.373Z,5.65
2022-10-07T11:40:29.092Z,8.18
2022-10-07T11:42:57.747Z,6.07
2022-10-07T11:45:27.514Z,7.43
2022-10-07T11:47:56.957Z,9.85
2022-10-07T11:50:27.214Z,6.47
2022-10-07T11:52:55.965Z,10.53
2022-10-07T11:55:27.565Z,8.82
2022-10-07T11:57:56.594Z,7.20
2022-10-07T12:00:36.808Z,9.57
2022-10-07T12:03:19.411Z,10.43
2022-10-07T12:05:53.336Z,7.43
2022-10-07T12:08:37.346Z,6.20
2022-10-07T12:11:14.377Z,8.10
2022-10-07T12:13:52.158Z,7.25
2022-10-07T12:16:39.354Z,5.32
2022-10-07T12:19:06.572Z,5.88
2022-10-07T12:21:52.389Z,8.15
2022-10-07T12:24:19.588Z,8.82
2022-10-07T12:26:47.162Z,7.35
2022-10-07T12:29:22.615Z,8.23
2022-10-07T12:31:50.093Z,8.10
2022-10-07T12:34:37.654Z,8.00
2022-10-07T12:37:37.203Z,7.95
2022-10-07T12:40:36.978Z,5.82
2022-10-07T12:43:25.218Z,6.97
2022-10-07T12:45:52.744Z,8.80
2022-10-07T12:48:21.544Z,9.13
2022-10-07T12:50:51.190Z,8.52
2022-10-07T12:53:19.374Z,7.20
2022-10-07T12:55:52.025Z,6.63
2022-10-07T12:58:53.214Z,6.95
2022-10-07T13:01:31.659Z,8.23
2022-10-07T13:04:09.118Z,5.20
2022-10-07T13:06:45.648Z,8.80
2022-10-07T13:09:22.013Z,6.47
2022-10-07T13:11:52.194Z,5.68
2022-10-07T13:14:28.580Z,7.93
2022-10-07T13:17:01.579Z,8.25
2022-10-07T13:19:36.667Z,7.30
2022-10-07T13:22:10.510Z,10.27
2022-10-07T13:24:40.078Z,9.68
2022-10-07T13:27:10.590Z,8.55
2022-10-07T13:29:38.962Z,7.07
2022-10-07T13:32:17.460Z,7.63
2022-10-07T13:34:48.183Z,6.53
2022-10-07T13:37:21.573Z,7.05
2022-10-07T13:39:48.761Z,8.63
2022-10-07T13:42:20.502Z,6.70
2022-10-07T13:44:48.552Z,5.13
2022-10-07T13:47:19.901Z,6.80
2022-10-07T13:49:49.272Z,5.13
2022-10-07T13:52:21.337Z,7.25
2022-10-07T13:54:52.351Z,6.47
2022-10-07T13:59:49.240Z,7.63
2022-10-07T14:02:17.084Z,7.97
2022-10-07T14:05:00.709Z,5.32
2022-10-07T14:07:29.264Z,3.80
2022-10-07T14:09:59.539Z,4.65
2022-10-07T14:12:31.108Z,6.43
2022-10-07T14:15:02.707Z,8.10
2022-10-07T14:17:41.429Z,5.93
2022-10-07T14:20:27.226Z,6.22
2022-10-07T14:22:56.734Z,5.90
2022-10-07T14:25:28.073Z,6.55
2022-10-07T14:27:58.970Z,7.72
2022-10-07T14:30:26.390Z,7.65
2022-10-07T14:33:17.827Z,7.00
2022-10-07T14:35:45.528Z,7.95
2022-10-07T14:38:41.196Z,7.85
2022-10-07T14:41:09.499Z,10.57
2022-10-07T14:43:37.328Z,7.35
2022-10-07T14:46:31.095Z,7.85
2022-10-07T14:48:58.277Z,7.82
2022-10-07T14:51:27.209Z,6.35
2022-10-07T14:53:57.230Z,4.95
2022-10-07T14:56:31.014Z,6.88
2022-10-07T14:58:58.432Z,9.90
2022-10-07T15:01:26.608Z,7.95
2022-10-07T15:03:53.880Z,6.57
2022-10-07T15:06:21.586Z,6.47
2022-10-07T15:08:49.193Z,7.22
2022-10-07T15:11:17.946Z,5.20
2022-10-07T15:13:47.810Z,7.32
2022-10-07T15:16:16.293Z,8.38
2022-10-07T15:18:46.973Z,6.65
2022-10-07T15:21:16.905Z,5.47
2022-10-07T15:23:44.966Z,7.60
2022-10-07T15:26:12.200Z,7.80
2022-10-07T15:28:39.548Z,7.57
2022-10-07T15:31:08.250Z,10.77
2022-10-07T15:33:36.586Z,9.60
2022-10-07T15:36:03.898Z,5.95
2022-10-07T15:38:31.996Z,6.75
2022-10-07T15:41:00.401Z,7.80
2022-10-07T15:43:28.028Z,9.40
2022-10-07T15:45:59.066Z,6.10
2022-10-07T15:50:54.284Z,8.23
2022-10-07T15:53:22.094Z,8.00
2022-10-07T15:55:54.484Z,10.43
2022-10-07T15:58:25.945Z,9.95
2022-10-07T16:00:59.963Z,9.38
2022-10-07T16:03:27.944Z,9.55
2022-10-07T16:06:02.208Z,8.02
2022-10-07T16:08:32.538Z,7.93
2022-10-07T16:11:03.562Z,7.82
2022-10-07T16:13:30.811Z,6.53
2022-10-07T16:16:06.523Z,10.55
2022-10-07T16:18:38.503Z,6.57
2022-10-07T16:21:06.082Z,9.75
2022-10-07T16:23:34.070Z,11.82
2022-10-07T16:26:21.294Z,7.63
2022-10-07T16:29:08.115Z,9.65
2022-10-07T16:31:36.193Z,10.50
2022-10-07T16:34:03.944Z,8.85
2022-10-07T16:36:31.408Z,8.55
2022-10-07T16:39:03.456Z,8.48
2022-10-07T16:41:31.646Z,9.63
2022-10-07T16:43:59.638Z,8.40
2022-10-07T16:46:27.223Z,9.55
2022-10-07T16:48:54.807Z,8.52
2022-10-07T16:51:23.094Z,12.65
2022-10-07T16:53:51.245Z,9.60
2022-10-07T16:56:19.088Z,13.95
2022-10-07T16:58:47.042Z,13.95
2022-10-07T17:01:17.636Z,13.88
2022-10-07T17:03:47.542Z,15.70
2022-10-07T17:06:15.854Z,12.30
2022-10-07T17:08:47.532Z,16.35
2022-10-07T17:11:29.285Z,16.92
2022-10-07T17:14:04.904Z,12.75
2022-10-07T17:16:34.542Z,14.80
2022-10-07T17:19:01.738Z,11.50
2022-10-07T17:21:28.899Z,14.10
2022-10-07T17:23:58.746Z,14.60
2022-10-07T17:26:27.050Z,19.77
2022-10-07T17:28:58.768Z,17.40
2022-10-07T17:31:26.758Z,19.65
2022-10-07T17:33:53.967Z,20.67
2022-10-07T17:36:21.415Z,19.48
2022-10-07T17:38:48.607Z,22.55
2022-10-07T17:41:22.170Z,17.92
2022-10-07T17:43:49.896Z,22.05
2022-10-07T17:46:18.002Z,21.48
2022-10-07T17:48:45.738Z,19.73
2022-10-07T17:51:13.417Z,25.27
2022-10-07T17:53:40.729Z,17.95
2022-10-07T17:56:10.016Z,16.90
2022-10-07T17:58:38.196Z,18.92
2022-10-07T18:01:07.078Z,16.73
2022-10-07T18:03:34.447Z,16.73
2022-10-07T18:06:03.608Z,19.80
2022-10-07T18:08:30.965Z,19.33
2022-10-07T18:10:58.245Z,24.38
2022-10-07T18:13:43.930Z,17.15
2022-10-07T18:16:14.122Z,29.50
2022-10-07T18:18:41.654Z,15.63
2022-10-07T18:21:09.120Z,19.50
2022-10-07T18:23:36.661Z,23.08
2022-10-07T18:26:05.008Z,19.17
2022-10-07T18:28:35.627Z,21.33
2022-10-07T18:31:06.050Z,18.95
2022-10-07T18:33:36.547Z,21.00
2022-10-07T18:36:11.534Z,23.58
2022-10-07T18:38:40.814Z,20.08
2022-10-07T18:41:09.500Z,25.00
2022-10-07T18:43:37.027Z,24.80
2022-10-07T18:46:05.596Z,21.48
2022-10-07T18:48:33.670Z,27.15
2022-10-07T18:51:01.142Z,25.02
2022-10-07T18:53:30.787Z,22.40
2022-10-07T18:56:05.026Z,24.45
2022-10-07T18:58:35.802Z,24.95
2022-10-07T19:01:10.807Z,25.63
2022-10-07T19:03:38.064Z,20.02
2022-10-07T19:06:06.764Z,21.50
2022-10-07T19:08:34.311Z,27.70
2022-10-07T19:11:05.619Z,23.80
2022-10-07T19:13:48.871Z,26.95
2022-10-07T19:16:21.116Z,18.00
2022-10-07T19:18:49.426Z,22.23
2022-10-07T19:21:19.027Z,25.13
2022-10-07T19:23:47.327Z,24.00
2022-10-07T19:26:17.755Z,23.50
2022-10-07T19:28:48.901Z,21.05
2022-10-07T19:31:18.154Z,27.42
2022-10-07T19:33:46.025Z,23.58
2022-10-07T19:36:14.481Z,26.45
2022-10-07T19:38:43.376Z,22.83
2022-10-07T19:41:11.990Z,19.55
2022-10-07T19:43:40.626Z,21.35
2022-10-07T19:46:08.655Z,21.95
2022-10-07T19:48:36.197Z,20.40
2022-10-07T19:51:14.145Z,20.35
2022-10-07T19:53:46.883Z,23.25
2022-10-07T19:56:16.766Z,21.48
2022-10-07T19:58:47.445Z,20.90
2022-10-07T20:01:15.404Z,22.83
2022-10-07T20:03:42.929Z,25.85
2022-10-07T20:06:11.304Z,27.55
2022-10-07T20:08:39.884Z,23.10
2022-10-07T20:11:07.441Z,22.50
2022-10-07T20:13:35.805Z,26.33
2022-10-07T20:16:05.140Z,24.50
2022-10-07T20:18:33.087Z,26.00
2022-10-07T20:21:10.704Z,24.17
2022-10-07T20:23:41.536Z,19.58
2022-10-07T20:26:09.607Z,19.92
2022-10-07T20:28:40.540Z,21.60
2022-10-07T20:31:11.882Z,22.30
2022-10-07T20:36:10.802Z,23.37
2022-10-07T20:38:57.509Z,20.60
2022-10-07T20:41:44.038Z,23.08
2022-10-07T20:44:12.245Z,24.05
2022-10-07T20:46:39.633Z,19.95
2022-10-07T20:49:23.217Z,23.33
2022-10-07T20:51:51.381Z,21.67
2022-10-07T20:54:19.209Z,18.40
2022-10-07T20:56:47.003Z,23.88
2022-10-07T20:59:14.335Z,18.95
2022-10-07T21:01:42.500Z,19.08
2022-10-07T21:04:11.105Z,21.42
2022-10-07T21:06:39.536Z,22.73
2022-10-07T21:09:07.381Z,21.15
2022-10-07T21:11:34.730Z,21.50
2022-10-07T21:14:01.977Z,22.65
2022-10-07T21:16:30.419Z,22.35
2022-10-07T21:18:57.839Z,21.40
2022-10-07T21:21:25.415Z,21.70
2022-10-07T21:23:52.975Z,21.40
2022-10-07T21:26:20.605Z,20.63
2022-10-07T21:28:50.604Z,21.60
2022-10-07T21:31:21.728Z,24.42
2022-10-07T21:36:17.570Z,21.45
2022-10-07T21:38:46.350Z,20.67
2022-10-07T21:41:18.387Z,20.75
2022-10-07T21:43:55.571Z,24.15
2022-10-07T21:46:23.449Z,22.10
2022-10-07T21:48:50.925Z,25.33
2022-10-07T21:51:18.520Z,26.10
2022-10-07T21:53:50.008Z,21.60
2022-10-07T21:56:17.364Z,16.23
2022-10-07T21:58:47.183Z,18.85
2022-10-07T22:01:16.393Z,22.30
2022-10-07T22:03:44.276Z,23.98
2022-10-07T22:06:13.581Z,19.90
2022-10-07T22:08:41.304Z,23.58
2022-10-07T22:11:13.198Z,18.60
2022-10-07T22:13:44.631Z,21.83
2022-10-07T22:16:14.923Z,17.85
2022-10-07T22:18:45.825Z,20.13
2022-10-07T22:21:33.156Z,18.67
2022-10-07T22:24:01.570Z,21.10
2022-10-07T22:26:30.092Z,22.67
2022-10-07T22:28:57.295Z,27.00
2022-10-07T22:31:26.279Z,21.73
2022-10-07T22:33:54.831Z,17.50
2022-10-07T22:36:22.572Z,22.48
2022-10-07T22:38:49.936Z,25.27
2022-10-07T22:41:19.311Z,24.13
2022-10-07T22:43:47.082Z,18.48
2022-10-07T22:46:24.381Z,17.67
2022-10-07T22:48:52.529Z,18.98
2022-10-07T22:51:19.691Z,16.90
2022-10-07T22:53:50.951Z,20.55
2022-10-07T22:58:49.304Z,17.80
2022-10-07T23:01:17.505Z,16.65
2022-10-07T23:03:44.811Z,16.63
2022-10-07T23:06:13.118Z,17.52
2022-10-07T23:08:40.652Z,18.00
2022-10-07T23:11:08.754Z,23.15
2022-10-07T23:13:37.056Z,17.30
2022-10-07T23:16:06.235Z,17.40
2022-10-07T23:18:33.624Z,18.35
2022-10-07T23:21:01.571Z,18.50
2022-10-07T23:23:29.509Z,24.20
2022-10-07T23:25:56.865Z,22.08
2022-10-07T23:28:25.785Z,24.80
2022-10-07T23:30:53.418Z,24.02
2022-10-07T23:33:20.581Z,19.33
2022-10-07T23:35:47.719Z,19.20
2022-10-07T23:38:15.035Z,15.38
2022-10-07T23:40:42.163Z,23.25
2022-10-07T23:43:11.239Z,20.15
2022-10-07T23:45:38.559Z,22.63
2022-10-07T23:48:05.718Z,20.65
2022-10-07T23:50:32.871Z,23.40
2022-10-07T23:53:00.180Z,22.95
2022-10-07T23:55:27.324Z,22.02
2022-10-07T23:57:54.470Z,19.80
